Oak Island, North Carolina
Current Conditions -  °F | °C
As of 11:35 AM on Saturday 20 Dec 2014 (Local Time) from KSUT Reporting Station
Moderate Rain Moderate Rain  
Wind Chill:   Ceiling: 3100
Heat Index:   Visibility: 4mi
Dew Point:   Wind: 7mph
Humidity: 93%   Direction: 50°NE
Pressure: 30.24"   Gusts: NA
Location:  33.92°N, 78.16°W
Report Text: KSUT 201635Z AUTO 05006KT 4SM RA SCT022 BKN031 OVC048 08/07 A3024 RMK AO2 P0003 T00820072
Loading
Personal Weather Stations






























Interactive Weather Map New forecast layout! Learn more

10-Day Weather Forecast

Advertisements
Track Severe Weather on mobile